sensor_id;sensor_type;location;lat;lon;timestamp;P1;durP1;ratioP1;P2;durP2;ratioP2
5955;SDS011;3004;48.080;11.600;2023-08-01T11:49:30;80.30;;;3.90;;
5955;SDS011;3004;48.080;11.600;2023-08-01T16:46:35;80.30;;;4.00;;
5955;SDS011;3004;48.080;11.600;2023-08-01T16:49:19;80.20;;;3.87;;
5955;SDS011;3004;48.080;11.600;2023-08-01T16:51:46;80.40;;;4.00;;
5955;SDS011;3004;48.080;11.600;2023-08-01T16:54:13;79.57;;;3.83;;
5955;SDS011;3004;48.080;11.600;2023-08-01T16:56:41;79.30;;;3.80;;
5955;SDS011;3004;48.080;11.600;2023-08-01T16:59:08;79.20;;;3.80;;
5955;SDS011;3004;48.080;11.600;2023-08-01T17:01:44;78.30;;;3.60;;
5955;SDS011;3004;48.080;11.600;2023-08-01T17:04:12;79.43;;;3.90;;
5955;SDS011;3004;48.080;11.600;2023-08-01T17:06:44;78.33;;;3.70;;
5955;SDS011;3004;48.080;11.600;2023-08-01T17:09:15;78.00;;;3.53;;
5955;SDS011;3004;48.080;11.600;2023-08-01T17:11:42;77.97;;;3.47;;
5955;SDS011;3004;48.080;11.600;2023-08-01T17:14:14;78.40;;;3.60;;
5955;SDS011;3004;48.080;11.600;2023-08-01T17:16:45;77.77;;;3.60;;
5955;SDS011;3004;48.080;11.600;2023-08-01T17:19:12;79.77;;;4.77;;
5955;SDS011;3004;48.080;11.600;2023-08-01T17:21:39;77.70;;;3.40;;
5955;SDS011;3004;48.080;11.600;2023-08-01T17:24:06;77.63;;;3.43;;
5955;SDS011;3004;48.080;11.600;2023-08-01T17:26:37;77.90;;;3.30;;
5955;SDS011;3004;48.080;11.600;2023-08-01T17:29:06;78.77;;;3.60;;
5955;SDS011;3004;48.080;11.600;2023-08-01T17:31:37;77.80;;;3.40;;
5955;SDS011;3004;48.080;11.600;2023-08-01T17:34:05;77.40;;;3.70;;
5955;SDS011;3004;48.080;11.600;2023-08-01T17:36:34;77.60;;;3.40;;
5955;SDS011;3004;48.080;11.600;2023-08-01T17:39:03;77.70;;;3.40;;
5955;SDS011;3004;48.080;11.600;2023-08-01T17:41:36;78.20;;;3.50;;
5955;SDS011;3004;48.080;11.600;2023-08-01T17:44:06;77.37;;;3.40;;
5955;SDS011;3004;48.080;11.600;2023-08-01T17:46:35;77.80;;;3.30;;
5955;SDS011;3004;48.080;11.600;2023-08-01T17:49:03;78.07;;;3.70;;
5955;SDS011;3004;48.080;11.600;2023-08-01T17:51:37;77.90;;;3.50;;
5955;SDS011;3004;48.080;11.600;2023-08-01T17:54:04;77.30;;;3.40;;
5955;SDS011;3004;48.080;11.600;2023-08-01T17:56:36;77.03;;;3.30;;
5955;SDS011;3004;48.080;11.600;2023-08-01T17:59:08;77.27;;;3.40;;
5955;SDS011;3004;48.080;11.600;2023-08-01T18:01:38;77.30;;;3.40;;
5955;SDS011;3004;48.080;11.600;2023-08-01T18:04:08;77.87;;;3.40;;
5955;SDS011;3004;48.080;11.600;2023-08-01T18:06:42;77.47;;;3.40;;
5955;SDS011;3004;48.080;11.600;2023-08-01T18:12:43;77.53;;;3.40;;
5955;SDS011;3004;48.080;11.600;2023-08-01T18:15:22;77.07;;;3.30;;
5955;SDS011;3004;48.080;11.600;2023-08-01T18:18:08;77.63;;;3.37;;
5955;SDS011;3004;48.080;11.600;2023-08-01T18:20:35;77.50;;;3.70;;
5955;SDS011;3004;48.080;11.600;2023-08-01T18:25:57;77.60;;;3.40;;
5955;SDS011;3004;48.080;11.600;2023-08-01T18:28:38;77.50;;;3.40;;
5955;SDS011;3004;48.080;11.600;2023-08-01T18:31:23;77.83;;;3.40;;
5955;SDS011;3004;48.080;11.600;2023-08-01T18:34:01;78.00;;;3.40;;
5955;SDS011;3004;48.080;11.600;2023-08-01T18:59:50;78.73;;;3.40;;
5955;SDS011;3004;48.080;11.600;2023-08-01T19:02:21;78.00;;;3.50;;
5955;SDS011;3004;48.080;11.600;2023-08-01T19:04:51;77.93;;;3.27;;
5955;SDS011;3004;48.080;11.600;2023-08-01T19:07:36;77.47;;;3.50;;
5955;SDS011;3004;48.080;11.600;2023-08-01T19:10:06;77.07;;;3.30;;
5955;SDS011;3004;48.080;11.600;2023-08-01T19:12:51;77.50;;;3.30;;
5955;SDS011;3004;48.080;11.600;2023-08-01T19:15:23;76.83;;;3.40;;
5955;SDS011;3004;48.080;11.600;2023-08-01T19:18:27;76.87;;;3.40;;
5955;SDS011;3004;48.080;11.600;2023-08-01T19:27:54;77.70;;;3.30;;
5955;SDS011;3004;48.080;11.600;2023-08-01T19:30:23;78.00;;;3.30;;
5955;SDS011;3004;48.080;11.600;2023-08-01T19:33:04;78.17;;;3.60;;
5955;SDS011;3004;48.080;11.600;2023-08-01T19:35:42;78.63;;;3.50;;
5955;SDS011;3004;48.080;11.600;2023-08-01T19:41:17;78.97;;;3.80;;
5955;SDS011;3004;48.080;11.600;2023-08-01T19:53:58;80.43;;;3.80;;
5955;SDS011;3004;48.080;11.600;2023-08-01T19:57:01;80.57;;;3.80;;
5955;SDS011;3004;48.080;11.600;2023-08-01T19:59:43;80.17;;;3.83;;
5955;SDS011;3004;48.080;11.600;2023-08-01T20:02:26;79.90;;;3.77;;
5955;SDS011;3004;48.080;11.600;2023-08-01T20:04:58;80.40;;;3.80;;
5955;SDS011;3004;48.080;11.600;2023-08-01T20:20:12;79.77;;;3.90;;
5955;SDS011;3004;48.080;11.600;2023-08-01T20:22:59;80.10;;;4.20;;
5955;SDS011;3004;48.080;11.600;2023-08-01T20:25:46;79.37;;;3.90;;
5955;SDS011;3004;48.080;11.600;2023-08-01T20:28:19;80.07;;;3.90;;
5955;SDS011;3004;48.080;11.600;2023-08-01T20:30:55;80.50;;;3.90;;
5955;SDS011;3004;48.080;11.600;2023-08-01T20:33:38;80.07;;;3.90;;
5955;SDS011;3004;48.080;11.600;2023-08-01T20:36:09;80.20;;;4.10;;
5955;SDS011;3004;48.080;11.600;2023-08-01T20:39:07;80.60;;;4.00;;
5955;SDS011;3004;48.080;11.600;2023-08-01T20:42:06;80.60;;;3.90;;
5955;SDS011;3004;48.080;11.600;2023-08-01T20:48:51;81.77;;;4.73;;
5955;SDS011;3004;48.080;11.600;2023-08-01T20:54:18;81.97;;;4.17;;
5955;SDS011;3004;48.080;11.600;2023-08-01T20:56:49;82.10;;;4.20;;
5955;SDS011;3004;48.080;11.600;2023-08-01T21:08:41;82.60;;;4.20;;
5955;SDS011;3004;48.080;11.600;2023-08-01T21:11:40;82.37;;;4.30;;
5955;SDS011;3004;48.080;11.600;2023-08-01T21:14:10;83.00;;;4.40;;
5955;SDS011;3004;48.080;11.600;2023-08-01T21:16:44;82.47;;;4.20;;
5955;SDS011;3004;48.080;11.600;2023-08-01T21:19:11;82.77;;;4.40;;
5955;SDS011;3004;48.080;11.600;2023-08-01T21:21:45;82.80;;;4.40;;
5955;SDS011;3004;48.080;11.600;2023-08-01T21:24:21;83.20;;;4.33;;
5955;SDS011;3004;48.080;11.600;2023-08-01T21:29:35;83.17;;;4.40;;
5955;SDS011;3004;48.080;11.600;2023-08-01T21:32:06;83.27;;;4.40;;
5955;SDS011;3004;48.080;11.600;2023-08-01T21:34:44;83.07;;;4.40;;
5955;SDS011;3004;48.080;11.600;2023-08-01T21:37:52;83.17;;;4.43;;
5955;SDS011;3004;48.080;11.600;2023-08-01T21:43:36;83.97;;;4.50;;
5955;SDS011;3004;48.080;11.600;2023-08-01T21:46:05;83.20;;;4.50;;
5955;SDS011;3004;48.080;11.600;2023-08-01T21:49:00;83.97;;;4.50;;
5955;SDS011;3004;48.080;11.600;2023-08-01T21:52:11;83.80;;;4.60;;
5955;SDS011;3004;48.080;11.600;2023-08-01T21:55:08;83.17;;;4.50;;
5955;SDS011;3004;48.080;11.600;2023-08-01T22:18:59;83.47;;;4.50;;
5955;SDS011;3004;48.080;11.600;2023-08-01T22:21:33;83.10;;;4.50;;
5955;SDS011;3004;48.080;11.600;2023-08-01T22:24:21;82.87;;;4.57;;
5955;SDS011;3004;48.080;11.600;2023-08-01T22:26:53;83.17;;;4.50;;
5955;SDS011;3004;48.080;11.600;2023-08-01T22:29:26;83.13;;;4.50;;
5955;SDS011;3004;48.080;11.600;2023-08-01T22:32:11;83.47;;;4.80;;
5955;SDS011;3004;48.080;11.600;2023-08-01T22:41:24;82.77;;;4.47;;
5955;SDS011;3004;48.080;11.600;2023-08-01T22:57:58;82.07;;;4.30;;
5955;SDS011;3004;48.080;11.600;2023-08-01T23:00:32;81.60;;;4.27;;
5955;SDS011;3004;48.080;11.600;2023-08-01T23:03:02;80.83;;;4.10;;
5955;SDS011;3004;48.080;11.600;2023-08-01T23:05:39;81.37;;;4.20;;
5955;SDS011;3004;48.080;11.600;2023-08-01T23:08:10;81.10;;;4.20;;
5955;SDS011;3004;48.080;11.600;2023-08-01T23:10:57;80.43;;;4.10;;
5955;SDS011;3004;48.080;11.600;2023-08-01T23:16:23;80.50;;;4.00;;
5955;SDS011;3004;48.080;11.600;2023-08-01T23:18:54;80.50;;;4.00;;
5955;SDS011;3004;48.080;11.600;2023-08-01T23:21:28;79.77;;;3.90;;
5955;SDS011;3004;48.080;11.600;2023-08-01T23:23:58;79.97;;;3.90;;
5955;SDS011;3004;48.080;11.600;2023-08-01T23:26:27;80.57;;;3.93;;
5955;SDS011;3004;48.080;11.600;2023-08-01T23:32:22;80.67;;;4.00;;
5955;SDS011;3004;48.080;11.600;2023-08-01T23:35:16;80.67;;;4.10;;
5955;SDS011;3004;48.080;11.600;2023-08-01T23:38:10;80.27;;;4.10;;
5955;SDS011;3004;48.080;11.600;2023-08-01T23:43:37;80.90;;;4.10;;
5955;SDS011;3004;48.080;11.600;2023-08-01T23:46:28;81.00;;;3.90;;
5955;SDS011;3004;48.080;11.600;2023-08-01T23:53:09;81.40;;;4.17;;
5955;SDS011;3004;48.080;11.600;2023-08-01T23:58:38;81.30;;;4.20;;
